This is the latest recevied weather packets stored in our database for station/object KC0UFP. If no packets are shown the sender has not sent any weather packets the latest 10 day(s).
| Time | Temp. | Humidity | Pressure | Rain* | Wind** | Luminosity | Snow |
|---|---|---|---|---|---|---|---|
| 1778105376 | 13.89° C | 73% | 1012.9 hPa | 0 mm | - | 110 W/m² | - |
| 1778105072 | 13.89° C | 73% | 1013.4 hPa | 0 mm | - | 92 W/m² | - |
| 1778104768 | 13.89° C | 75% | 1013.8 hPa | 0 mm | - | 126 W/m² | - |
| 1778104464 | 13.89° C | 76% | 1014 hPa | 0 mm | - | 116 W/m² | - |
| 1778104160 | 13.89° C | 76% | 1014.3 hPa | 0 mm | - | 136 W/m² | - |
| 1778103857 | 13.89° C | 75% | 1014.4 hPa | 0 mm | - | 108 W/m² | - |
| 1778103555 | 13.89° C | 76% | 1014.5 hPa | 0 mm | - | 170 W/m² | - |
| 1778103253 | 13.89° C | 77% | 1014.8 hPa | 0 mm | - | 198 W/m² | - |
| 1778102950 | 13.33° C | 76% | 1014.8 hPa | 0 mm | - | 158 W/m² | - |
| 1778102646 | 13.33° C | 75% | 1014.5 hPa | 0 mm | - | 107 W/m² | - |
| 1778102340 | 13.33° C | 75% | 1015 hPa | 0 mm | - | 119 W/m² | - |
| 1778102037 | 13.33° C | 76% | 1014.8 hPa | 0 mm | - | 111 W/m² | - |
| 1778101734 | 13.33° C | 73% | 1014.7 hPa | 0 mm | - | 103 W/m² | - |
| 1778101431 | 13.33° C | 73% | 1015.1 hPa | 0 mm | - | 98 W/m² | - |
| 1778101128 | 13.33° C | 72% | 1015 hPa | 0 mm | - | 88 W/m² | - |
| 1778100824 | 13.33° C | 73% | 1014.7 hPa | 0 mm | - | 111 W/m² | - |
| 1778100520 | 13.33° C | 72% | 1015.3 hPa | 0 mm | - | 180 W/m² | - |
| 1778100218 | 13.33° C | 72% | 1015 hPa | 0 mm | - | 161 W/m² | - |
| 1778099916 | 13.33° C | 73% | 1014.7 hPa | 0 mm | - | 118 W/m² | - |
| 1778099613 | 13.33° C | 72% | 1015.2 hPa | 0 mm | - | 139 W/m² | - |
| 1778099309 | 13.33° C | 71% | 1015.7 hPa | 0 mm | - | 157 W/m² | - |
| 1778099007 | 13.33° C | 74% | 1015.8 hPa | 0 mm | - | 158 W/m² | - |
| 1778098703 | 13.33° C | 73% | 1015.6 hPa | 0 mm | - | 132 W/m² | - |
| 1778098401 | 13.33° C | 73% | 1015.7 hPa | 0 mm | - | 123 W/m² | - |
| 1778098097 | 13.33° C | 71% | 1015.9 hPa | 0 mm | - | 67 W/m² | - |
* Rain latest hour (hover to see other rain measurements)
** Current wind speed in m/s (hover to see current wind gust speed)